Time;durP1;ratioP1;P1;durP2;ratioP2;P2;SDS_P1;SDS_P2;PMS_P1;PMS_P2;Temp;Humidity;BMP_temperature;BMP_pressure;BME280_temperature;BME280_humidity;BME280_pressure;Samples;Min_cycle;Max_cycle;Signal;HPM_P1;HPM_P2
2021/06/03 00:00:17;;;;;;;6.72;6.22;;;13.50;94.60;;;;;;5056951;28;20242;-62
2021/06/03 00:02:46;;;;;;;6.43;5.82;;;13.40;95.10;;;;;;5057001;28;20257;-62
2021/06/03 00:05:16;;;;;;;8.50;6.97;;;13.50;95.20;;;;;;5056640;28;20246;-62
2021/06/03 00:07:43;;;;;;;6.30;5.70;;;13.50;95.30;;;;;;5055218;28;20215;-63
2021/06/03 00:10:12;;;;;;;7.07;6.38;;;13.30;95.80;;;;;;5053544;28;20211;-62
2021/06/03 00:12:40;;;;;;;6.10;5.63;;;13.30;96.00;;;;;;5056640;28;20257;-62
2021/06/03 00:15:10;;;;;;;6.70;6.10;;;13.30;96.00;;;;;;5054410;28;20207;-62
2021/06/03 00:17:38;;;;;;;7.00;5.72;;;13.20;96.70;;;;;;5056482;28;20238;-62
2021/06/03 00:20:11;;;;;;;9.63;5.55;;;14.40;97.20;;;;;;5054902;28;20211;-62
2021/06/03 00:22:39;;;;;;;6.93;6.05;;;13.20;96.80;;;;;;5047763;28;20203;-63
2021/06/03 00:25:07;;;;;;;5.38;4.97;;;13.10;97.20;;;;;;5050265;28;20258;-62
2021/06/03 00:27:35;;;;;;;5.85;5.30;;;13.00;97.50;;;;;;5056120;28;20273;-63
2021/06/03 00:30:04;;;;;;;8.60;5.65;;;13.00;97.60;;;;;;5056261;28;20212;-62
2021/06/03 00:32:32;;;;;;;5.78;5.28;;;12.90;97.60;;;;;;5054144;28;20253;-62
2021/06/03 00:34:59;;;;;;;7.30;6.68;;;13.00;97.60;;;;;;5056018;28;20199;-62
2021/06/03 00:37:26;;;;;;;6.80;5.97;;;13.00;97.60;;;;;;5055233;28;20235;-62
2021/06/03 00:39:53;;;;;;;7.03;6.43;;;13.00;97.30;;;;;;5052099;28;20199;-62
2021/06/03 00:42:21;;;;;;;6.68;6.07;;;12.90;97.80;;;;;;5059189;28;20555;-62
2021/06/03 00:44:48;;;;;;;6.13;5.53;;;12.80;97.90;;;;;;5060925;28;20211;-62
2021/06/03 00:47:15;;;;;;;5.55;5.13;;;12.70;98.30;;;;;;5059420;28;20257;-64
2021/06/03 00:49:42;;;;;;;4.80;4.40;;;12.80;98.20;;;;;;5059659;28;20217;-63
2021/06/03 00:52:10;;;;;;;6.35;5.75;;;12.90;98.10;;;;;;5060133;28;20215;-63
2021/06/03 00:54:37;;;;;;;4.75;4.40;;;13.00;97.90;;;;;;5058559;28;20207;-62
2021/06/03 00:57:05;;;;;;;9.02;5.80;;;13.00;98.20;;;;;;5059635;28;20254;-62
2021/06/03 00:59:32;;;;;;;5.72;5.22;;;12.80;98.30;;;;;;5057854;28;20207;-62
2021/06/03 01:01:59;;;;;;;5.68;5.20;;;12.70;98.60;;;;;;5060101;28;20532;-62
2021/06/03 01:04:26;;;;;;;5.00;4.53;;;12.70;98.50;;;;;;5056307;28;20215;-63
2021/06/03 01:06:53;;;;;;;6.32;5.65;;;12.80;98.30;;;;;;5048902;28;20212;-62
2021/06/03 01:09:23;;;;;;;8.90;5.10;;;12.80;98.50;;;;;;5059518;28;20203;-62
2021/06/03 01:11:53;;;;;;;6.45;5.90;;;12.70;98.50;;;;;;5051870;28;20219;-61
2021/06/03 01:14:25;;;;;;;6.05;5.55;;;12.70;98.50;;;;;;5047117;28;20205;-62
2021/06/03 01:16:54;;;;;;;7.35;5.50;;;12.70;98.80;;;;;;5091331;28;20235;-62
2021/06/03 01:19:30;;;;;;;5.65;5.15;;;12.60;98.80;;;;;;5055375;28;20235;-62
2021/06/03 01:22:42;;;;;;;9.75;6.20;;;12.50;99.00;;;;;;5055937;28;20425;-61
2021/06/03 01:25:12;;;;;;;13.23;5.78;;;12.50;99.10;;;;;;5045344;28;20237;-63
2021/06/03 01:27:40;;;;;;;7.65;5.70;;;12.50;99.10;;;;;;5049682;28;20223;-63
2021/06/03 01:30:11;;;;;;;7.38;5.75;;;12.50;99.30;;;;;;5055124;28;20203;-62
2021/06/03 01:32:45;;;;;;;6.97;5.72;;;12.50;99.30;;;;;;5055485;28;20293;-62
2021/06/03 01:35:24;;;;;;;6.45;5.85;;;12.40;99.30;;;;;;5059757;28;20206;-62
2021/06/03 01:37:52;;;;;;;7.93;5.95;;;12.40;99.40;;;;;;5055633;28;20266;-62
2021/06/03 01:40:22;;;;;;;6.72;5.75;;;12.40;99.40;;;;;;5058859;28;20204;-62
2021/06/03 01:42:49;;;;;;;11.18;6.82;;;12.40;99.60;;;;;;5055602;28;20532;-61
2021/06/03 01:45:18;;;;;;;6.55;5.88;;;12.40;99.80;;;;;;5059170;28;20428;-61
2021/06/03 01:47:47;;;;;;;6.55;5.95;;;12.30;99.90;;;;;;5050974;28;20281;-62
2021/06/03 01:50:16;;;;;;;5.95;5.38;;;12.30;99.90;;;;;;5054302;28;20231;-62
2021/06/03 01:52:43;;;;;;;8.75;6.07;;;12.20;99.90;;;;;;5056221;28;20257;-63
2021/06/03 01:55:12;;;;;;;6.35;5.60;;;12.00;99.90;;;;;;5059093;28;20494;-62
2021/06/03 01:57:40;;;;;;;9.27;6.93;;;12.00;99.90;;;;;;5055466;28;20291;-62
2021/06/03 02:00:11;;;;;;;8.45;7.75;;;12.00;99.90;;;;;;5058050;28;20409;-62
2021/06/03 02:02:38;;;;;;;10.18;9.10;;;12.00;99.90;;;;;;5058635;28;20211;-62
2021/06/03 02:05:06;;;;;;;9.57;8.57;;;11.80;99.90;;;;;;5050303;28;20238;-62
2021/06/03 02:07:34;;;;;;;9.32;8.32;;;12.00;99.90;;;;;;5054628;28;20219;-62
2021/06/03 02:10:01;;;;;;;11.38;7.60;;;12.00;99.90;;;;;;5051947;28;20254;-62
2021/06/03 02:12:32;;;;;;;10.70;7.72;;;11.90;99.90;;;;;;5058072;28;20290;-62
2021/06/03 02:15:03;;;;;;;11.43;9.07;;;11.90;99.90;;;;;;5058908;28;20436;-63
2021/06/03 02:17:34;;;;;;;8.82;7.97;;;11.80;99.90;;;;;;5058013;28;20532;-63
2021/06/03 02:20:15;;;;;;;9.27;8.40;;;11.80;99.90;;;;;;5045867;28;20231;-62
2021/06/03 02:22:47;;;;;;;9.02;8.23;;;11.90;99.90;;;;;;5058178;28;20210;-62
2021/06/03 02:25:15;;;;;;;8.55;7.75;;;11.80;99.90;;;;;;5057480;28;20650;-62
2021/06/03 02:27:43;;;;;;;9.93;8.93;;;11.70;99.90;;;;;;5056582;28;20217;-62
2021/06/03 02:30:11;;;;;;;8.10;7.30;;;11.70;99.90;;;;;;5045228;28;20207;-62
2021/06/03 02:32:38;;;;;;;9.05;8.15;;;11.80;99.90;;;;;;5056213;28;20207;-62
2021/06/03 02:35:11;;;;;;;11.38;7.20;;;11.80;99.90;;;;;;5056976;28;20260;-61
2021/06/03 02:37:39;;;;;;;7.57;6.80;;;11.80;99.90;;;;;;5045823;28;20239;-62
2021/06/03 02:40:14;;;;;;;7.65;6.95;;;11.90;99.90;;;;;;5043650;28;20396;-62
2021/06/03 02:42:45;;;;;;;6.88;6.28;;;11.80;99.90;;;;;;5056512;28;20759;-61
2021/06/03 02:45:15;;;;;;;7.60;6.80;;;11.80;99.90;;;;;;5059154;28;20199;-62
2021/06/03 02:47:42;;;;;;;8.93;7.13;;;11.80;99.90;;;;;;5043465;28;20219;-61
2021/06/03 02:50:12;;;;;;;7.78;6.47;;;11.70;99.90;;;;;;5058853;28;20382;-62
2021/06/03 02:52:39;;;;;;;8.60;7.53;;;11.80;99.90;;;;;;5052092;28;20222;-62
2021/06/03 02:55:10;;;;;;;7.60;6.90;;;11.80;99.90;;;;;;5051263;28;20203;-62
2021/06/03 02:57:37;;;;;;;7.32;6.72;;;11.80;99.90;;;;;;5050040;28;20230;-61
2021/06/03 03:00:11;;;;;;;7.32;6.68;;;11.80;99.90;;;;;;5057637;28;20256;-63
2021/06/03 03:02:38;;;;;;;10.27;7.68;;;11.70;99.90;;;;;;5056860;28;20210;-62
2021/06/03 03:05:05;;;;;;;6.80;6.20;;;11.70;99.90;;;;;;5058037;28;20217;-62
2021/06/03 03:07:34;;;;;;;7.78;7.07;;;11.70;99.90;;;;;;5056238;28;20267;-62
2021/06/03 03:10:04;;;;;;;8.10;7.30;;;11.60;99.90;;;;;;5055597;28;20728;-62
2021/06/03 03:12:32;;;;;;;6.85;6.25;;;11.60;99.90;;;;;;5055700;28;20210;-61
2021/06/03 03:14:59;;;;;;;7.68;7.07;;;11.70;99.90;;;;;;5052974;28;20517;-61
2021/06/03 03:17:26;;;;;;;7.13;5.72;;;11.80;99.90;;;;;;5056732;28;20531;-62
2021/06/03 03:19:53;;;;;;;8.07;7.30;;;12.70;99.90;;;;;;5054571;28;20249;-61
2021/06/03 03:22:20;;;;;;;7.55;6.85;;;11.90;99.90;;;;;;5057577;28;20226;-61
2021/06/03 03:24:47;;;;;;;7.47;6.65;;;11.90;99.90;;;;;;5056724;28;20210;-61
2021/06/03 03:27:14;;;;;;;7.22;6.30;;;12.00;99.90;;;;;;5045912;28;20253;-62
2021/06/03 03:29:42;;;;;;;8.05;7.25;;;12.10;99.90;;;;;;5052863;28;20204;-61
2021/06/03 03:32:09;;;;;;;8.43;7.20;;;12.40;99.90;;;;;;5057213;28;20826;-61
2021/06/03 03:34:36;;;;;;;12.13;7.35;;;12.70;99.90;;;;;;5054741;28;20242;-61
2021/06/03 03:37:03;;;;;;;7.20;6.60;;;13.00;99.90;;;;;;5055259;28;20518;-61
2021/06/03 03:39:30;;;;;;;7.78;6.40;;;13.30;99.60;;;;;;5055105;28;20532;-62
2021/06/03 03:41:57;;;;;;;9.48;6.95;;;13.50;99.00;;;;;;5054714;28;20231;-61
2021/06/03 03:44:24;;;;;;;7.65;6.57;;;13.60;98.70;;;;;;5055258;28;20372;-62
2021/06/03 03:46:52;;;;;;;15.38;7.18;;;13.70;98.40;;;;;;5054680;28;20196;-62
2021/06/03 03:49:19;;;;;;;6.95;6.25;;;13.80;98.30;;;;;;5056230;28;20231;-62
2021/06/03 03:51:46;;;;;;;6.80;6.20;;;13.90;98.30;;;;;;5046451;28;20482;-62
2021/06/03 03:54:14;;;;;;;7.57;6.75;;;14.00;97.90;;;;;;5057350;28;20261;-61
2021/06/03 03:56:41;;;;;;;9.20;7.35;;;14.20;97.60;;;;;;5056931;28;20633;-62
2021/06/03 03:59:08;;;;;;;7.97;6.90;;;14.20;97.30;;;;;;5052476;28;20473;-63
2021/06/03 04:01:35;;;;;;;8.05;7.35;;;14.20;97.50;;;;;;5055883;28;20493;-63
2021/06/03 04:04:02;;;;;;;7.88;7.05;;;14.20;97.20;;;;;;5054700;28;20231;-62
2021/06/03 04:06:29;;;;;;;8.00;7.30;;;14.50;97.00;;;;;;5053686;28;20449;-62
2021/06/03 04:08:56;;;;;;;7.10;6.50;;;14.60;96.50;;;;;;5054717;28;20211;-62
2021/06/03 04:11:24;;;;;;;7.93;7.18;;;14.50;96.60;;;;;;5055126;28;20214;-62
2021/06/03 04:13:52;;;;;;;7.13;6.53;;;14.40;96.90;;;;;;5054203;28;20451;-62
2021/06/03 04:16:19;;;;;;;8.80;7.53;;;14.20;96.90;;;;;;5054773;28;20203;-62
2021/06/03 04:18:46;;;;;;;8.85;7.90;;;14.00;97.60;;;;;;5054311;28;20257;-63
2021/06/03 04:21:13;;;;;;;9.13;7.25;;;14.00;97.80;;;;;;5055443;28;20283;-63
2021/06/03 04:23:40;;;;;;;7.20;6.60;;;14.00;97.40;;;;;;5054584;28;20241;-61
2021/06/03 04:26:07;;;;;;;8.75;7.68;;;13.50;97.50;;;;;;5056173;28;20242;-63
2021/06/03 04:28:35;;;;;;;7.88;6.97;;;14.00;97.70;;;;;;5053800;28;20211;-63
2021/06/03 04:31:02;;;;;;;9.20;8.30;;;14.10;97.40;;;;;;5053669;28;20322;-62
2021/06/03 04:33:30;;;;;;;9.57;6.97;;;14.10;96.80;;;;;;5056385;28;20441;-62
2021/06/03 04:35:57;;;;;;;7.80;7.00;;;;;;;;;;5054157;28;20214;-61
2021/06/03 04:38:24;;;;;;;8.88;8.00;;;;;;;;;;5055763;28;20277;-61
2021/06/03 04:40:52;;;;;;;8.82;7.93;;;;;;;;;;5054145;28;20695;-63
2021/06/03 04:43:19;;;;;;;10.90;8.00;;;;;;;;;;5054741;28;20236;-63
2021/06/03 04:45:47;;;;;;;9.52;8.10;;;;;;;;;;5054220;28;20207;-61
2021/06/03 04:48:15;;;;;;;8.98;8.23;;;14.80;95.60;;;;;;5053937;28;20211;-63
2021/06/03 04:50:42;;;;;;;8.90;8.10;;;;;;;;;;5056030;28;20208;-62
2021/06/03 04:53:10;;;;;;;9.75;7.47;;;;;;;;;;5056555;28;20249;-63
2021/06/03 04:55:37;;;;;;;9.07;8.13;;;;;;;;;;5055095;28;20389;-62
2021/06/03 04:58:05;;;;;;;12.10;7.80;;;;;;;;;;5052870;28;20225;-63
2021/06/03 05:00:34;;;;;;;10.13;9.15;;;;;;;;;;5051093;28;20274;-63
2021/06/03 05:03:03;;;;;;;9.60;7.63;;;;;;;;;;5056134;28;20200;-62
2021/06/03 05:05:30;;;;;;;10.50;8.18;;;;;;;;;;5086110;28;20203;-62
2021/06/03 05:07:57;;;;;;;8.07;7.35;;;15.40;94.30;;;;;;5056169;28;20505;-62
2021/06/03 05:10:26;;;;;;;9.27;8.48;;;15.50;94.70;;;;;;5052528;28;20227;-62
2021/06/03 05:12:54;;;;;;;9.98;8.98;;;15.50;95.10;;;;;;5049857;28;20461;-62
2021/06/03 05:15:21;;;;;;;9.55;8.70;;;15.60;95.30;;;;;;5055650;28;20209;-63
2021/06/03 05:17:51;;;;;;;9.88;8.88;;;15.70;94.70;;;;;;5054870;28;20236;-62
2021/06/03 05:20:21;;;;;;;8.30;7.50;;;15.80;94.70;;;;;;5055303;28;20228;-65
2021/06/03 05:22:50;;;;;;;9.50;8.52;;;15.90;94.10;;;;;;5052132;28;20446;-63
2021/06/03 05:25:22;;;;;;;9.23;8.33;;;15.90;94.00;;;;;;5058975;28;20214;-63
2021/06/03 05:27:49;;;;;;;11.17;10.07;;;16.00;94.00;;;;;;5056268;28;20815;-63
2021/06/03 05:30:19;;;;;;;8.50;7.83;;;16.10;93.60;;;;;;5077606;28;20442;-63
2021/06/03 05:32:47;;;;;;;10.50;8.70;;;16.20;93.60;;;;;;5054420;28;20668;-62
2021/06/03 05:35:17;;;;;;;10.77;8.80;;;16.30;93.30;;;;;;5057812;28;20448;-62
2021/06/03 05:37:45;;;;;;;9.73;8.80;;;16.30;93.40;;;;;;5057526;28;20495;-63
2021/06/03 05:40:17;;;;;;;9.80;9.00;;;16.60;93.20;;;;;;5052539;28;20438;-62
2021/06/03 05:42:46;;;;;;;9.37;8.57;;;16.90;92.50;;;;;;5056049;28;20576;-61
2021/06/03 05:45:14;;;;;;;10.00;9.00;;;17.10;92.30;;;;;;5052153;28;20418;-63
2021/06/03 05:47:41;;;;;;;10.77;9.77;;;17.20;91.80;;;;;;5054096;28;20450;-63
2021/06/03 05:50:10;;;;;;;10.60;9.40;;;17.40;91.60;;;;;;5055409;28;20495;-62
2021/06/03 05:52:39;;;;;;;10.27;9.20;;;17.50;91.60;;;;;;5059257;28;20448;-62
2021/06/03 05:55:09;;;;;;;9.70;8.80;;;17.60;91.40;;;;;;5059027;28;20415;-63
2021/06/03 05:57:36;;;;;;;9.40;8.60;;;17.70;91.30;;;;;;5057813;28;20462;-62
2021/06/03 06:00:30;;;;;;;9.87;9.07;;;17.90;91.00;;;;;;5059173;28;20455;-63
2021/06/03 06:03:01;;;;;;;9.30;8.60;;;19.10;90.50;;;;;;5047893;28;20453;-62
2021/06/03 06:08:16;;;;;;;10.07;9.27;;;18.90;87.60;;;;;;5058796;28;20444;-63
2021/06/03 06:10:44;;;;;;;10.07;9.03;;;19.40;85.90;;;;;;5057132;28;20764;-63
2021/06/03 06:13:11;;;;;;;10.80;10.00;;;20.30;82.20;;;;;;5058253;28;20449;-63
2021/06/03 06:15:39;;;;;;;10.90;9.90;;;20.50;79.30;;;;;;5056806;28;20461;-62
2021/06/03 06:18:07;;;;;;;11.70;9.73;;;;;;;;;;5058124;28;20459;-64
2021/06/03 06:20:35;;;;;;;11.20;10.00;;;;;;;;;;5057397;28;20420;-62
2021/06/03 06:23:02;;;;;;;11.67;10.57;;;;;;;;;;5057692;28;20437;-62
2021/06/03 06:25:30;;;;;;;10.50;9.60;;;24.10;66.40;;;;;;5058205;28;20446;-63
2021/06/03 06:27:58;;;;;;;12.73;11.60;;;24.30;66.80;;;;;;5056227;28;20457;-63
2021/06/03 06:30:27;;;;;;;11.00;10.13;;;24.90;63.60;;;;;;5057041;28;20737;-63
2021/06/03 06:32:54;;;;;;;11.77;10.73;;;23.80;63.80;;;;;;5057604;28;20819;-63
2021/06/03 06:35:21;;;;;;;11.90;11.00;;;23.60;63.20;;;;;;5057374;28;20461;-64
2021/06/03 06:37:49;;;;;;;12.27;11.13;;;23.50;63.00;;;;;;5056573;28;20492;-63
2021/06/03 06:40:16;;;;;;;10.20;9.40;;;23.30;63.30;;;;;;5057533;28;20485;-62
2021/06/03 06:42:45;;;;;;;12.17;10.90;;;23.80;60.70;;;;;;5055543;28;20682;-62
2021/06/03 06:45:12;;;;;;;11.70;10.60;;;24.30;59.00;;;;;;5056292;28;20499;-63
2021/06/03 06:47:39;;;;;;;12.50;11.47;;;24.40;59.00;;;;;;5057868;28;20444;-63
2021/06/03 06:50:08;;;;;;;12.50;11.30;;;25.50;56.20;;;;;;5057664;28;20458;-63
2021/06/03 06:52:35;;;;;;;11.10;10.30;;;26.30;54.10;;;;;;5058441;28;20444;-63
2021/06/03 06:55:07;;;;;;;9.13;8.43;;;27.40;50.60;;;;;;5052332;28;20459;-63
2021/06/03 06:57:34;;;;;;;11.40;10.40;;;27.80;48.90;;;;;;5055659;28;20462;-63
2021/06/03 07:00:08;;;;;;;10.03;9.27;;;28.00;47.90;;;;;;5054350;28;20413;-63
2021/06/03 07:02:35;;;;;;;11.47;9.63;;;28.90;46.50;;;;;;5055143;28;20647;-62
2021/06/03 07:05:09;;;;;;;9.20;8.50;;;31.00;42.50;;;;;;5057917;28;20468;-63
2021/06/03 07:07:37;;;;;;;10.20;9.50;;;31.20;40.00;;;;;;5055428;28;20423;-62
2021/06/03 07:10:06;;;;;;;9.03;8.53;;;31.10;40.10;;;;;;5056794;28;20467;-63
2021/06/03 07:12:34;;;;;;;9.60;9.00;;;31.30;38.00;;;;;;5054894;28;20450;-62
2021/06/03 07:15:02;;;;;;;9.73;9.13;;;30.60;38.30;;;;;;5057164;28;20498;-63
2021/06/03 07:17:29;;;;;;;8.73;8.13;;;31.70;37.40;;;;;;5056735;28;20493;-63
2021/06/03 07:19:56;;;;;;;8.73;8.30;;;32.70;36.40;;;;;;5058190;28;20486;-63
2021/06/03 07:22:23;;;;;;;8.73;8.13;;;34.30;33.80;;;;;;5057095;28;20448;-65
2021/06/03 07:24:50;;;;;;;8.93;8.10;;;34.50;33.00;;;;;;5054397;28;20486;-64
2021/06/03 07:27:17;;;;;;;8.80;8.40;;;32.50;32.70;;;;;;5057482;28;20464;-63
2021/06/03 07:29:44;;;;;;;8.40;8.00;;;33.60;32.40;;;;;;5051197;28;20511;-63
2021/06/03 07:32:11;;;;;;;8.30;7.90;;;34.30;31.30;;;;;;5056458;28;20433;-63
2021/06/03 07:34:39;;;;;;;8.63;7.83;;;34.70;30.70;;;;;;5053344;28;20472;-64
2021/06/03 07:37:06;;;;;;;8.60;8.00;;;35.50;29.40;;;;;;5055545;28;20464;-64
2021/06/03 07:39:33;;;;;;;8.43;7.97;;;35.90;29.00;;;;;;5054765;28;21075;-65
2021/06/03 07:42:00;;;;;;;7.20;6.90;;;34.90;29.80;;;;;;5052327;28;20473;-64
2021/06/03 07:44:27;;;;;;;8.50;8.10;;;35.90;28.90;;;;;;5057048;28;20453;-63
2021/06/03 07:46:54;;;;;;;7.70;7.30;;;35.10;28.30;;;;;;5054041;28;20502;-65
2021/06/03 07:49:21;;;;;;;7.90;7.50;;;35.00;30.00;;;;;;5054871;28;20763;-65
2021/06/03 07:51:48;;;;;;;8.60;8.20;;;34.80;28.60;;;;;;5056799;28;20447;-64
2021/06/03 07:54:15;;;;;;;7.80;7.40;;;34.70;28.90;;;;;;5052742;28;20487;-64
2021/06/03 07:56:42;;;;;;;8.13;7.57;;;35.60;29.20;;;;;;5053381;28;20487;-65
2021/06/03 07:59:09;;;;;;;7.23;6.83;;;35.30;28.30;;;;;;5052407;28;20502;-63
2021/06/03 08:01:37;;;;;;;7.60;7.30;;;34.90;28.90;;;;;;5056507;28;20437;-64
2021/06/03 08:04:04;;;;;;;8.07;7.60;;;36.40;28.20;;;;;;5054952;28;20747;-65
2021/06/03 08:06:31;;;;;;;8.43;8.03;;;37.10;27.70;;;;;;5052472;28;20487;-64
2021/06/03 08:08:58;;;;;;;8.20;7.90;;;35.70;27.30;;;;;;5054398;28;20667;-64
2021/06/03 08:11:26;;;;;;;8.27;7.80;;;35.60;27.60;;;;;;5054384;28;20639;-66
2021/06/03 08:13:55;;;;;;;8.50;7.90;;;35.80;27.60;;;;;;5054143;28;20543;-65
2021/06/03 08:16:22;;;;;;;8.73;8.33;;;35.20;27.40;;;;;;5056738;28;20478;-65
2021/06/03 08:18:50;;;;;;;8.33;7.83;;;36.10;27.80;;;;;;5078166;28;20563;-64
2021/06/03 08:21:17;;;;;;;7.60;7.30;;;34.30;28.30;;;;;;5054821;28;20436;-65
2021/06/03 08:23:45;;;;;;;7.70;7.30;;;31.90;30.90;;;;;;5054688;28;20686;-66
2021/06/03 08:26:12;;;;;;;7.97;7.63;;;33.20;29.60;;;;;;5054163;28;20535;-64
2021/06/03 08:28:40;;;;;;;7.87;7.50;;;33.80;27.40;;;;;;5054393;28;20475;-66
2021/06/03 08:31:07;;;;;;;7.33;7.03;;;31.80;29.80;;;;;;5050266;28;20495;-65
2021/06/03 08:33:35;;;;;;;7.23;6.93;;;32.30;29.40;;;;;;5051374;28;20759;-65
2021/06/03 08:36:02;;;;;;;8.30;8.00;;;32.10;28.40;;;;;;5053750;28;20467;-66
2021/06/03 08:38:30;;;;;;;8.20;7.80;;;31.40;29.30;;;;;;5047706;28;20542;-67
2021/06/03 08:40:58;;;;;;;8.70;7.90;;;31.60;29.50;;;;;;5056579;28;20456;-69
2021/06/03 08:43:28;;;;;;;8.50;8.07;;;33.20;28.40;;;;;;5056250;28;20445;-64
2021/06/03 08:46:02;;;;;;;8.17;7.77;;;33.40;28.40;;;;;;5055346;28;20448;-65
2021/06/03 08:48:30;;;;;;;7.80;7.50;;;33.80;27.90;;;;;;5087085;28;20449;-65
2021/06/03 08:51:00;;;;;;;8.30;8.00;;;35.60;27.20;;;;;;5052947;28;20448;-64
2021/06/03 08:53:29;;;;;;;8.70;8.30;;;37.60;25.60;;;;;;5054869;28;20479;-65
2021/06/03 08:56:17;;;;;;;8.90;8.30;;;37.80;25.30;;;;;;5053808;28;20515;-64
2021/06/03 08:58:47;;;;;;;8.20;7.80;;;36.70;26.20;;;;;;5047926;28;20518;-65
2021/06/03 09:01:15;;;;;;;8.27;7.77;;;34.30;27.80;;;;;;5060091;28;20577;-65
2021/06/03 09:03:42;;;;;;;8.27;7.87;;;33.80;28.20;;;;;;5058492;28;20885;-64
2021/06/03 09:06:13;;;;;;;8.43;7.93;;;31.80;29.80;;;;;;5041166;28;20448;-65
2021/06/03 09:08:49;;;;;;;7.90;7.50;;;33.40;29.10;;;;;;5057975;28;20440;-66
2021/06/03 09:11:19;;;;;;;8.10;7.70;;;34.90;27.80;;;;;;5055356;28;20427;-65
2021/06/03 09:13:52;;;;;;;8.00;7.70;;;32.90;28.90;;;;;;5059547;28;20483;-65
2021/06/03 09:16:26;;;;;;;7.80;7.43;;;31.50;29.60;;;;;;5060481;28;20444;-65
2021/06/03 09:19:00;;;;;;;7.20;6.90;;;31.40;30.90;;;;;;5059089;28;20491;-64
2021/06/03 09:21:29;;;;;;;8.10;7.80;;;31.90;29.70;;;;;;5058425;28;20778;-67
2021/06/03 09:24:10;;;;;;;7.23;6.87;;;32.40;29.20;;;;;;5055400;28;20532;-65
2021/06/03 09:26:52;;;;;;;7.60;7.30;;;31.70;29.50;;;;;;5059249;28;20837;-66
2021/06/03 09:29:27;;;;;;;8.13;7.60;;;29.10;32.60;;;;;;5055253;28;20449;-66
2021/06/03 09:32:21;;;;;;;7.67;7.00;;;28.30;34.90;;;;;;5058580;28;20836;-66
2021/06/03 09:34:55;;;;;;;6.70;6.40;;;28.10;35.20;;;;;;5056148;28;20449;-65
2021/06/03 09:37:33;;;;;;;7.80;7.27;;;27.30;36.60;;;;;;5056379;28;20479;-66
2021/06/03 09:40:00;;;;;;;7.37;6.97;;;26.00;38.10;;;;;;5058391;28;20931;-66
2021/06/03 09:42:28;;;;;;;6.30;5.90;;;25.80;39.10;;;;;;5058444;28;20481;-66
2021/06/03 09:44:56;;;;;;;6.90;6.50;;;25.10;39.70;;;;;;5058109;28;20433;-66
2021/06/03 09:47:33;;;;;;;7.03;6.63;;;25.00;39.70;;;;;;5056413;28;20446;-66
2021/06/03 09:50:00;;;;;;;7.30;6.67;;;24.60;40.10;;;;;;5052987;28;20805;-66
2021/06/03 09:52:37;;;;;;;7.17;6.67;;;24.20;41.50;;;;;;5052342;28;20422;-66
2021/06/03 09:55:11;;;;;;;10.50;6.73;;;24.10;41.70;;;;;;5051970;28;20671;-66
2021/06/03 09:57:41;;;;;;;7.13;6.67;;;24.10;41.60;;;;;;5054992;28;20779;-66
2021/06/03 10:00:15;;;;;;;7.60;7.10;;;24.10;41.50;;;;;;5057438;28;20499;-66
2021/06/03 10:02:44;;;;;;;7.00;6.70;;;23.90;42.40;;;;;;5040014;28;20441;-65
2021/06/03 10:05:12;;;;;;;7.10;6.67;;;24.20;42.30;;;;;;5053711;28;20416;-65
2021/06/03 10:07:52;;;;;;;7.40;6.70;;;24.20;42.00;;;;;;5055883;28;20515;-66
2021/06/03 10:10:19;;;;;;;6.93;6.43;;;24.30;42.10;;;;;;5055596;28;20440;-65
2021/06/03 10:12:48;;;;;;;6.17;5.97;;;24.20;40.60;;;;;;5054519;28;20414;-65
2021/06/03 10:15:22;;;;;;;5.77;5.50;;;24.10;41.60;;;;;;5055699;28;20442;-66
2021/06/03 10:18:02;;;;;;;6.40;6.00;;;23.70;42.50;;;;;;5057571;28;20411;-65
2021/06/03 10:21:11;;;;;;;6.00;5.60;;;23.70;42.20;;;;;;5056652;28;20725;-65
2021/06/03 10:23:42;;;;;;;6.40;6.00;;;23.70;42.10;;;;;;5048069;28;20467;-65
2021/06/03 10:26:09;;;;;;;6.50;6.10;;;23.30;43.00;;;;;;5058030;28;20507;-66
2021/06/03 10:28:38;;;;;;;6.03;5.73;;;23.20;43.90;;;;;;5087305;28;20436;-66
2021/06/03 10:31:12;;;;;;;6.03;5.70;;;23.10;44.00;;;;;;5056986;28;20466;-66
2021/06/03 10:33:41;;;;;;;7.03;6.40;;;23.30;44.60;;;;;;5057094;28;20467;-66
2021/06/03 10:36:12;;;;;;;6.20;5.77;;;23.60;44.80;;;;;;5055492;28;20503;-65
2021/06/03 10:38:40;;;;;;;5.77;5.47;;;23.70;43.70;;;;;;5058052;28;20487;-64
2021/06/03 10:41:12;;;;;;;5.80;5.50;;;23.40;43.40;;;;;;5055405;28;20415;-66
2021/06/03 10:43:40;;;;;;;6.03;5.70;;;23.30;43.80;;;;;;5056189;28;20445;-64
2021/06/03 10:46:08;;;;;;;6.37;6.03;;;23.30;43.90;;;;;;5056911;28;20415;-65
2021/06/03 10:48:36;;;;;;;6.97;6.47;;;23.50;43.80;;;;;;5052860;28;20746;-65
2021/06/03 10:51:05;;;;;;;6.37;5.80;;;23.80;44.40;;;;;;5057208;28;20779;-63
2021/06/03 10:53:33;;;;;;;6.60;6.20;;;24.10;43.80;;;;;;5056586;28;20452;-65
2021/06/03 10:56:10;;;;;;;6.03;5.73;;;24.00;42.60;;;;;;5057931;28;20783;-65
2021/06/03 10:59:26;;;;;;;7.40;6.87;;;23.90;43.60;;;;;;5044541;28;20441;-65
2021/06/03 11:01:59;;;;;;;6.17;5.73;;;23.60;44.00;;;;;;5056959;28;20416;-65
2021/06/03 11:04:40;;;;;;;5.73;5.43;;;23.40;44.60;;;;;;5058702;28;20518;-64
2021/06/03 11:07:11;;;;;;;6.10;5.70;;;23.30;45.00;;;;;;5058162;28;20441;-65
2021/06/03 11:09:43;;;;;;;5.50;5.20;;;23.20;44.70;;;;;;5056292;28;20434;-65
2021/06/03 11:12:22;;;;;;;5.67;5.37;;;23.20;45.40;;;;;;5047112;28;20495;-65
2021/06/03 11:15:19;;;;;;;6.90;6.50;;;23.50;45.30;;;;;;5057332;28;20428;-66
2021/06/03 11:18:02;;;;;;;5.87;5.57;;;23.40;44.30;;;;;;5052231;28;20749;-65
2021/06/03 11:20:39;;;;;;;5.90;5.60;;;23.30;45.10;;;;;;5049110;28;20509;-67
2021/06/03 11:23:29;;;;;;;6.30;6.00;;;23.30;44.10;;;;;;5050388;28;20442;-65
2021/06/03 11:26:02;;;;;;;5.67;5.37;;;23.60;44.90;;;;;;5053564;28;20424;-65
2021/06/03 11:28:34;;;;;;;6.10;5.80;;;23.70;44.60;;;;;;5052152;28;20413;-65
2021/06/03 11:31:23;;;;;;;5.00;4.80;;;23.80;44.00;;;;;;5050021;28;20780;-65
2021/06/03 11:34:23;;;;;;;6.27;5.87;;;23.90;43.10;;;;;;5056553;28;20446;-65
2021/06/03 11:37:01;;;;;;;6.03;5.73;;;23.80;43.40;;;;;;5046646;28;20580;-65
2021/06/03 11:39:32;;;;;;;6.10;5.80;;;23.40;44.10;;;;;;5050884;28;20535;-64
2021/06/03 11:42:27;;;;;;;5.57;5.37;;;23.30;44.50;;;;;;5052330;28;20481;-65
2021/06/03 11:45:22;;;;;;;5.97;5.67;;;23.50;44.20;;;;;;5046875;28;20416;-65
2021/06/03 11:47:54;;;;;;;6.93;6.53;;;23.50;44.60;;;;;;5046835;28;20611;-64
2021/06/03 11:50:24;;;;;;;6.23;5.93;;;23.50;44.90;;;;;;5056859;28;20457;-65
2021/06/03 11:53:00;;;;;;;5.93;5.63;;;23.70;44.80;;;;;;5057540;28;20778;-63
2021/06/03 11:55:27;;;;;;;5.80;5.50;;;23.60;44.60;;;;;;5052744;28;20416;-65
2021/06/03 11:58:21;;;;;;;6.47;6.17;;;23.60;44.50;;;;;;5036752;28;20509;-65
2021/06/03 12:01:01;;;;;;;6.43;5.93;;;23.30;44.30;;;;;;5055334;28;20501;-65
2021/06/03 12:03:34;;;;;;;6.10;5.73;;;23.30;44.70;;;;;;5054906;28;20440;-64
2021/06/03 12:06:10;;;;;;;6.20;5.90;;;23.50;44.40;;;;;;5056754;28;20464;-66
2021/06/03 12:08:51;;;;;;;6.60;6.20;;;23.50;44.50;;;;;;5055960;28;20419;-65
2021/06/03 12:11:27;;;;;;;6.70;6.40;;;23.50;44.20;;;;;;5057266;28;20784;-64
2021/06/03 12:14:20;;;;;;;6.83;6.43;;;23.50;44.00;;;;;;5054935;28;20410;-65
2021/06/03 12:17:03;;;;;;;6.43;6.13;;;23.40;44.20;;;;;;5055659;28;20411;-65
2021/06/03 12:19:34;;;;;;;6.17;5.87;;;23.60;44.60;;;;;;5052384;28;20455;-64
2021/06/03 12:22:05;;;;;;;5.87;5.57;;;23.80;43.20;;;;;;5053658;28;20450;-66
2021/06/03 12:24:43;;;;;;;5.97;5.70;;;23.90;43.30;;;;;;5055775;28;20443;-64
2021/06/03 12:27:33;;;;;;;6.20;5.90;;;23.80;43.20;;;;;;5056278;28;20415;-63
2021/06/03 12:30:10;;;;;;;7.40;6.90;;;23.90;43.70;;;;;;5056180;28;20809;-63
2021/06/03 12:32:37;;;;;;;7.03;6.70;;;23.90;44.20;;;;;;5048587;28;20703;-64
2021/06/03 12:35:06;;;;;;;6.63;6.23;;;24.00;44.60;;;;;;5058038;28;20428;-64
2021/06/03 12:37:35;;;;;;;6.40;6.10;;;23.90;45.00;;;;;;5057279;28;20472;-65
2021/06/03 12:40:20;;;;;;;6.27;5.83;;;23.80;45.40;;;;;;5058563;28;20777;-64
2021/06/03 12:42:48;;;;;;;6.83;6.43;;;23.60;45.40;;;;;;5054407;28;20541;-64
2021/06/03 12:45:17;;;;;;;7.13;6.63;;;23.50;46.20;;;;;;5057971;28;20510;-64
2021/06/03 12:47:44;;;;;;;6.10;5.80;;;23.60;45.50;;;;;;5056143;28;20775;-64
2021/06/03 12:50:18;;;;;;;6.50;6.10;;;23.60;46.00;;;;;;5059454;28;20412;-65
2021/06/03 12:52:47;;;;;;;6.07;5.67;;;23.60;46.00;;;;;;5058883;28;20423;-64
2021/06/03 12:55:25;;;;;;;6.00;5.70;;;23.50;45.70;;;;;;5057057;28;20843;-64
2021/06/03 12:57:53;;;;;;;7.73;6.90;;;23.50;46.90;;;;;;5052782;28;20414;-64
2021/06/03 13:00:26;;;;;;;6.60;6.10;;;23.60;46.10;;;;;;5057679;28;20546;-65
2021/06/03 13:02:54;;;;;;;8.00;7.50;;;23.70;46.40;;;;;;5058856;28;20418;-66
2021/06/03 13:05:22;;;;;;;6.87;6.47;;;23.90;47.40;;;;;;5057969;28;20445;-66
2021/06/03 13:07:49;;;;;;;6.50;6.20;;;23.90;43.80;;;;;;5057809;28;20441;-64
2021/06/03 13:10:22;;;;;;;7.40;7.00;;;23.80;44.90;;;;;;5058974;28;20491;-64